Time;durP1;ratioP1;P1;durP2;ratioP2;P2;SDS_P1;SDS_P2;PMS_P1;PMS_P2;Temp;Humidity;BMP_temperature;BMP_pressure;BME280_temperature;BME280_humidity;BME280_pressure;Samples;Min_cycle;Max_cycle;Signal;HPM_P1;HPM_P2
2022/08/15 00:01:01;;;;;;;3.50;1.80;;;21.10;81.50;;;;;;5051966;28;20776;-69
2022/08/15 00:03:33;;;;;;;2.93;1.53;;;21.10;81.50;;;;;;5052544;28;20682;-69
2022/08/15 00:06:05;;;;;;;3.43;2.03;;;21.00;81.50;;;;;;5052428;28;20503;-68
2022/08/15 00:08:34;;;;;;;4.47;2.30;;;21.00;81.60;;;;;;5052407;28;20388;-69
2022/08/15 00:11:15;;;;;;;4.40;2.40;;;21.00;81.10;;;;;;5051935;28;20400;-68
2022/08/15 00:13:42;;;;;;;4.87;2.03;;;21.10;81.30;;;;;;5052342;28;20397;-68
2022/08/15 00:16:08;;;;;;;3.80;1.87;;;21.10;81.40;;;;;;5052127;28;20896;-68
2022/08/15 00:18:35;;;;;;;4.73;2.07;;;21.00;82.10;;;;;;5052081;28;20408;-68
2022/08/15 00:21:03;;;;;;;5.30;1.90;;;21.00;82.90;;;;;;5051698;28;20936;-68
2022/08/15 00:23:29;;;;;;;5.27;2.70;;;20.90;84.10;;;;;;5052282;28;20417;-68
2022/08/15 00:25:59;;;;;;;9.40;2.63;;;20.90;84.60;;;;;;5051872;28;20419;-68
2022/08/15 00:28:28;;;;;;;7.37;2.73;;;20.80;85.60;;;;;;5052122;28;20392;-68
2022/08/15 00:30:54;;;;;;;5.63;2.70;;;20.70;86.70;;;;;;5051979;28;20415;-68
2022/08/15 00:33:20;;;;;;;6.13;2.07;;;20.60;87.60;;;;;;5051774;28;20889;-68
2022/08/15 00:35:50;;;;;;;5.30;2.70;;;20.60;88.30;;;;;;5052028;28;20194;-68
2022/08/15 00:38:21;;;;;;;3.67;1.77;;;20.50;88.90;;;;;;5051628;28;20430;-68
2022/08/15 00:43:40;;;;;;;4.70;2.00;;;20.40;90.40;;;;;;5051902;28;20399;-68
2022/08/15 00:46:11;;;;;;;5.13;2.60;;;20.30;90.70;;;;;;5051870;28;20412;-69
2022/08/15 00:48:41;;;;;;;3.20;1.90;;;20.20;91.10;;;;;;5051856;28;20808;-69
2022/08/15 00:51:13;;;;;;;9.00;2.73;;;20.20;91.50;;;;;;5050884;28;20976;-69
2022/08/15 00:53:41;;;;;;;5.60;2.30;;;20.20;91.90;;;;;;5051668;28;20420;-69
2022/08/15 00:56:09;;;;;;;4.07;2.50;;;20.10;92.30;;;;;;5051758;28;20412;-69
2022/08/15 00:58:35;;;;;;;4.90;2.00;;;20.10;92.50;;;;;;5051632;28;20499;-68
2022/08/15 01:01:03;;;;;;;13.60;1.93;;;20.10;92.50;;;;;;5051479;28;20884;-69
2022/08/15 01:03:32;;;;;;;4.43;2.00;;;20.10;93.00;;;;;;5051587;28;20400;-70
2022/08/15 01:06:02;;;;;;;5.93;2.57;;;20.10;93.10;;;;;;5051552;28;20824;-69
2022/08/15 01:08:32;;;;;;;7.80;2.40;;;20.10;93.40;;;;;;5053694;28;20419;-70
2022/08/15 01:11:02;;;;;;;5.40;2.77;;;20.00;93.90;;;;;;5055001;28;20396;-69
2022/08/15 01:13:29;;;;;;;4.97;2.97;;;20.00;94.20;;;;;;5055005;28;20424;-69
2022/08/15 01:15:55;;;;;;;3.77;1.97;;;20.00;94.50;;;;;;5055409;28;20889;-70
2022/08/15 01:18:21;;;;;;;3.30;1.60;;;20.00;94.60;;;;;;5055341;28;20491;-69
2022/08/15 01:20:48;;;;;;;5.87;2.43;;;20.00;94.80;;;;;;5055331;28;20519;-69
2022/08/15 01:23:27;;;;;;;7.60;2.70;;;20.00;94.90;;;;;;5054846;28;20892;-69
2022/08/15 01:25:58;;;;;;;3.73;2.23;;;19.90;95.00;;;;;;5054999;28;20401;-70
2022/08/15 01:28:35;;;;;;;5.60;2.80;;;19.90;95.00;;;;;;5055223;28;20385;-69
2022/08/15 01:31:15;;;;;;;6.67;2.50;;;20.00;95.10;;;;;;5054974;28;20430;-70
2022/08/15 01:33:50;;;;;;;6.17;2.47;;;19.90;95.30;;;;;;5054997;28;20397;-69
2022/08/15 01:36:16;;;;;;;4.80;2.33;;;19.90;95.50;;;;;;5054799;28;20411;-69
2022/08/15 01:38:47;;;;;;;9.40;2.67;;;19.90;95.60;;;;;;5054881;28;20431;-69
2022/08/15 01:41:18;;;;;;;3.70;2.13;;;19.90;95.60;;;;;;5054614;28;20396;-69
2022/08/15 01:43:57;;;;;;;4.03;2.10;;;19.90;95.70;;;;;;5054689;28;20447;-69
2022/08/15 01:46:25;;;;;;;5.87;1.87;;;19.90;95.70;;;;;;5054980;28;20404;-69
2022/08/15 01:49:00;;;;;;;5.50;2.53;;;19.90;95.90;;;;;;5054457;28;20900;-69
2022/08/15 01:51:25;;;;;;;5.20;2.10;;;19.80;96.10;;;;;;5053585;28;20476;-69
2022/08/15 01:54:04;;;;;;;6.43;2.30;;;19.90;96.30;;;;;;5054457;28;20535;-69
2022/08/15 01:56:37;;;;;;;6.80;2.60;;;19.80;96.40;;;;;;5054343;28;20173;-69
2022/08/15 01:59:05;;;;;;;4.23;1.90;;;19.90;96.40;;;;;;5054625;28;20409;-69
2022/08/15 02:01:39;;;;;;;12.90;1.80;;;19.80;96.40;;;;;;5054304;28;20412;-69
2022/08/15 02:04:05;;;;;;;9.60;2.20;;;19.80;96.40;;;;;;5054301;28;21019;-69
2022/08/15 02:06:31;;;;;;;6.70;2.60;;;19.80;96.50;;;;;;5054352;28;20409;-69
2022/08/15 02:08:56;;;;;;;4.60;2.20;;;19.90;96.60;;;;;;5054304;28;20181;-69
2022/08/15 02:11:26;;;;;;;4.00;2.13;;;19.90;96.50;;;;;;5053784;28;20650;-69
2022/08/15 02:13:54;;;;;;;4.23;2.23;;;19.90;96.70;;;;;;5054265;28;20654;-69
2022/08/15 02:16:21;;;;;;;7.30;2.83;;;19.80;96.80;;;;;;5054428;28;20401;-69
2022/08/15 02:18:47;;;;;;;4.87;2.33;;;19.80;96.90;;;;;;5053924;28;20998;-69
2022/08/15 02:21:13;;;;;;;4.00;1.77;;;19.80;97.00;;;;;;5053320;28;20416;-69
2022/08/15 02:23:39;;;;;;;4.50;2.13;;;19.80;97.30;;;;;;5053872;28;20638;-69
2022/08/15 02:26:07;;;;;;;4.97;2.10;;;19.70;97.50;;;;;;5054085;28;20181;-69
2022/08/15 02:28:33;;;;;;;4.00;1.97;;;19.70;97.50;;;;;;5053872;28;20630;-69
2022/08/15 02:30:59;;;;;;;3.80;1.90;;;19.70;97.70;;;;;;5053593;28;20522;-69
2022/08/15 02:33:27;;;;;;;5.23;2.17;;;19.70;97.90;;;;;;5053891;28;20172;-69
2022/08/15 02:35:52;;;;;;;5.90;2.00;;;19.70;98.20;;;;;;5053885;28;20174;-69
2022/08/15 02:38:18;;;;;;;11.73;2.00;;;19.60;98.30;;;;;;5053440;28;20403;-70
2022/08/15 02:40:44;;;;;;;4.33;1.87;;;19.60;98.50;;;;;;5053675;28;20174;-69
2022/08/15 02:43:13;;;;;;;10.50;2.00;;;19.60;98.80;;;;;;5053221;28;20181;-69
2022/08/15 02:45:47;;;;;;;4.67;2.40;;;19.60;99.30;;;;;;5053862;28;20404;-69
2022/08/15 02:48:14;;;;;;;5.00;1.60;;;19.60;99.70;;;;;;5053935;28;20392;-69
2022/08/15 02:50:40;;;;;;;8.97;2.63;;;19.50;99.50;;;;;;5052941;28;20819;-69
2022/08/15 02:53:16;;;;;;;2.77;1.50;;;19.50;99.90;;;;;;5053128;28;20432;-69
2022/08/15 02:55:44;;;;;;;7.73;2.27;;;19.50;99.90;;;;;;5053848;28;20534;-69
2022/08/15 02:58:11;;;;;;;4.70;2.30;;;19.40;99.90;;;;;;5053568;28;20405;-70
2022/08/15 03:00:38;;;;;;;3.27;2.13;;;19.30;99.90;;;;;;5052225;28;20828;-69
2022/08/15 03:03:07;;;;;;;5.73;2.60;;;19.20;99.90;;;;;;5053036;28;20419;-69
2022/08/15 03:05:35;;;;;;;4.90;2.40;;;19.10;99.90;;;;;;5053558;28;20451;-69
2022/08/15 03:08:00;;;;;;;4.17;2.23;;;19.00;99.90;;;;;;5052949;28;20420;-69
2022/08/15 03:10:27;;;;;;;5.20;2.53;;;18.90;99.90;;;;;;5053347;28;20426;-69
2022/08/15 03:13:01;;;;;;;7.00;2.53;;;18.70;99.90;;;;;;5052783;28;20206;-69
2022/08/15 03:15:41;;;;;;;8.47;2.97;;;18.60;99.90;;;;;;5052960;28;20485;-69
2022/08/15 03:18:06;;;;;;;4.80;2.53;;;18.50;99.90;;;;;;5053012;28;20388;-69
2022/08/15 03:20:32;;;;;;;4.10;2.53;;;18.50;99.90;;;;;;5052939;28;20409;-69
2022/08/15 03:22:59;;;;;;;3.77;2.33;;;18.50;99.90;;;;;;5059862;28;20248;-69
2022/08/15 03:25:25;;;;;;;3.77;2.20;;;18.50;99.90;;;;;;5072878;28;20511;-69
2022/08/15 03:27:54;;;;;;;4.07;2.27;;;18.50;99.90;;;;;;5072618;28;20415;-68
2022/08/15 03:30:21;;;;;;;4.33;2.30;;;18.50;99.90;;;;;;5072573;28;20963;-69
2022/08/15 03:32:46;;;;;;;15.47;2.80;;;18.50;99.90;;;;;;5071715;28;20490;-69
2022/08/15 03:35:12;;;;;;;7.73;2.33;;;18.50;99.90;;;;;;5072632;28;20466;-69
2022/08/15 03:37:39;;;;;;;5.73;2.63;;;18.50;99.90;;;;;;5072466;28;20215;-69
2022/08/15 03:40:06;;;;;;;4.23;2.53;;;18.50;99.90;;;;;;5072600;28;20181;-69
2022/08/15 03:42:33;;;;;;;4.67;2.70;;;18.50;99.90;;;;;;5071948;28;20400;-68
2022/08/15 03:45:02;;;;;;;4.90;2.13;;;18.50;99.90;;;;;;5072353;28;20411;-69
2022/08/15 03:47:29;;;;;;;5.87;2.57;;;18.60;99.90;;;;;;5072546;28;20416;-68
2022/08/15 03:49:55;;;;;;;9.70;2.80;;;18.60;99.90;;;;;;5072465;28;20486;-68
2022/08/15 03:52:21;;;;;;;4.13;2.17;;;18.60;99.90;;;;;;5071207;28;20431;-68
2022/08/15 03:54:47;;;;;;;5.40;3.17;;;18.50;99.90;;;;;;5072091;28;20459;-68
2022/08/15 03:57:12;;;;;;;6.27;2.50;;;18.50;99.90;;;;;;5055351;28;20423;-68
2022/08/15 03:59:38;;;;;;;8.90;2.57;;;18.50;99.90;;;;;;5052318;28;20170;-69
2022/08/15 04:02:10;;;;;;;4.43;2.30;;;18.50;99.90;;;;;;5051937;28;20622;-68
2022/08/15 04:04:36;;;;;;;4.53;2.37;;;18.50;99.90;;;;;;5052206;28;20646;-68
2022/08/15 04:07:03;;;;;;;3.70;2.30;;;18.50;99.90;;;;;;5052136;28;20507;-68
2022/08/15 04:09:29;;;;;;;5.60;2.60;;;18.50;99.90;;;;;;5052069;28;20181;-69
2022/08/15 04:11:55;;;;;;;5.23;2.43;;;18.50;99.90;;;;;;5051947;28;20822;-69
2022/08/15 04:14:21;;;;;;;4.20;2.27;;;18.50;99.90;;;;;;5052173;28;20455;-69
2022/08/15 04:16:47;;;;;;;4.07;2.10;;;18.50;99.90;;;;;;5051081;28;20178;-69
2022/08/15 04:19:15;;;;;;;4.13;1.93;;;18.40;99.90;;;;;;5052309;28;20896;-70
2022/08/15 04:21:44;;;;;;;9.77;2.60;;;18.40;99.90;;;;;;5051719;28;20166;-69
2022/08/15 04:24:10;;;;;;;7.83;2.53;;;18.40;99.90;;;;;;5069511;28;20422;-69
2022/08/15 04:26:35;;;;;;;5.57;2.17;;;18.40;99.90;;;;;;5072332;28;20740;-69
2022/08/15 04:29:02;;;;;;;5.13;2.60;;;18.40;99.90;;;;;;5072265;28;20412;-69
2022/08/15 04:31:27;;;;;;;4.87;2.60;;;18.40;99.90;;;;;;5071681;28;20191;-69
2022/08/15 04:33:53;;;;;;;4.97;1.90;;;18.40;99.90;;;;;;5072124;28;20454;-69
2022/08/15 04:36:20;;;;;;;4.50;2.40;;;18.40;99.90;;;;;;5071882;28;20558;-69
2022/08/15 04:38:47;;;;;;;12.30;2.77;;;18.30;99.90;;;;;;5072027;28;20197;-69
2022/08/15 04:41:16;;;;;;;3.50;1.97;;;18.30;99.90;;;;;;5071422;28;20408;-69
2022/08/15 04:43:43;;;;;;;2.83;1.50;;;18.30;99.90;;;;;;5074678;28;20399;-69
2022/08/15 04:46:09;;;;;;;3.20;1.80;;;18.20;99.90;;;;;;5075834;28;20400;-69
2022/08/15 04:48:35;;;;;;;4.60;2.00;;;18.20;99.90;;;;;;5075836;28;20874;-69
2022/08/15 04:51:03;;;;;;;4.00;2.23;;;18.30;99.90;;;;;;5074853;28;20465;-69
2022/08/15 04:53:33;;;;;;;5.13;1.70;;;18.30;99.90;;;;;;5075867;28;20543;-69
2022/08/15 04:56:00;;;;;;;4.53;2.53;;;18.30;99.90;;;;;;5069285;28;20466;-69
2022/08/15 04:58:27;;;;;;;3.50;1.67;;;18.30;99.90;;;;;;5056167;28;20432;-68
2022/08/15 05:01:05;;;;;;;3.20;1.53;;;18.40;99.90;;;;;;5056529;28;20413;-69
2022/08/15 05:03:31;;;;;;;4.10;1.90;;;18.30;99.90;;;;;;5056914;28;20396;-69
2022/08/15 05:06:02;;;;;;;4.23;1.80;;;18.30;99.90;;;;;;5056409;28;20457;-69
2022/08/15 05:08:30;;;;;;;4.27;1.43;;;18.30;99.90;;;;;;5057081;28;20396;-69
2022/08/15 05:11:01;;;;;;;2.80;1.60;;;18.30;99.90;;;;;;5056278;28;20758;-69
2022/08/15 05:13:30;;;;;;;3.50;1.40;;;18.20;99.90;;;;;;5055936;28;20476;-69
2022/08/15 05:15:58;;;;;;;3.73;1.73;;;18.20;99.90;;;;;;5055930;28;20460;-69
2022/08/15 05:18:25;;;;;;;3.93;1.87;;;18.20;99.90;;;;;;5055357;28;20451;-69
2022/08/15 05:20:51;;;;;;;3.90;1.57;;;18.30;99.90;;;;;;5055069;28;20420;-69
2022/08/15 05:23:19;;;;;;;5.77;1.87;;;18.20;99.90;;;;;;5065180;28;20430;-69
2022/08/15 05:25:50;;;;;;;5.70;1.60;;;18.20;99.90;;;;;;5074870;28;20411;-68
2022/08/15 05:28:15;;;;;;;7.60;1.83;;;18.20;99.90;;;;;;5074804;28;20407;-69
2022/08/15 05:30:41;;;;;;;17.60;1.67;;;18.30;99.90;;;;;;5074895;28;20412;-69
2022/08/15 05:33:11;;;;;;;3.17;1.47;;;18.30;99.90;;;;;;5074468;28;20234;-69
2022/08/15 05:35:41;;;;;;;2.30;1.20;;;18.30;99.90;;;;;;5074544;28;20549;-69
2022/08/15 05:38:21;;;;;;;3.23;1.40;;;18.30;99.90;;;;;;5074681;28;20786;-68
2022/08/15 05:41:17;;;;;;;2.97;1.40;;;18.30;99.90;;;;;;5074743;28;20497;-69
2022/08/15 05:43:55;;;;;;;3.20;1.47;;;18.30;99.90;;;;;;5075079;28;20499;-68
2022/08/15 05:46:26;;;;;;;3.63;0.90;;;18.30;99.90;;;;;;5074773;28;20422;-68
2022/08/15 05:49:33;;;;;;;2.90;1.83;;;18.30;99.90;;;;;;5074699;28;20456;-69
2022/08/15 05:52:14;;;;;;;2.87;1.23;;;18.30;99.90;;;;;;5072793;28;20485;-68
2022/08/15 05:54:42;;;;;;;4.07;1.50;;;18.30;99.90;;;;;;5073685;28;20476;-70
2022/08/15 05:57:19;;;;;;;3.90;2.00;;;18.30;99.90;;;;;;5074725;28;20403;-68
2022/08/15 05:59:52;;;;;;;4.50;1.83;;;18.30;99.90;;;;;;5074219;28;20407;-68
2022/08/15 06:02:32;;;;;;;2.53;1.53;;;18.40;99.90;;;;;;5073979;28;20388;-69
2022/08/15 06:05:01;;;;;;;5.63;1.97;;;18.40;99.90;;;;;;5074309;28;20456;-69
2022/08/15 06:07:28;;;;;;;7.80;2.20;;;18.50;99.90;;;;;;5074419;28;20809;-68
2022/08/15 06:10:02;;;;;;;3.73;1.47;;;18.60;99.90;;;;;;5074311;28;20469;-69
2022/08/15 06:12:40;;;;;;;3.23;1.10;;;18.60;99.90;;;;;;5073913;28;20401;-68
2022/08/15 06:15:46;;;;;;;4.80;1.33;;;18.70;99.90;;;;;;5074106;28;20872;-69
2022/08/15 06:18:15;;;;;;;4.03;1.97;;;18.80;99.90;;;;;;5074211;28;20418;-69
2022/08/15 06:20:53;;;;;;;2.93;1.83;;;18.90;99.90;;;;;;5073982;28;20403;-68
2022/08/15 06:23:32;;;;;;;4.20;2.27;;;18.90;99.90;;;;;;5063177;28;20436;-68
2022/08/15 06:26:08;;;;;;;3.97;1.40;;;18.90;99.90;;;;;;5053503;28;20410;-69
2022/08/15 06:28:42;;;;;;;2.97;1.77;;;18.90;99.90;;;;;;5053836;28;20412;-69
2022/08/15 06:31:37;;;;;;;2.37;1.20;;;19.00;99.90;;;;;;5053244;28;20781;-69
2022/08/15 06:34:16;;;;;;;2.47;1.33;;;19.10;99.90;;;;;;5053738;28;20613;-69
2022/08/15 06:37:10;;;;;;;9.87;2.40;;;19.20;99.90;;;;;;5053911;28;20404;-69
2022/08/15 06:39:42;;;;;;;4.30;1.40;;;19.20;99.90;;;;;;5053883;28;20400;-69
2022/08/15 06:42:21;;;;;;;2.00;1.10;;;19.30;99.90;;;;;;5053091;28;20900;-69
2022/08/15 06:44:51;;;;;;;3.73;1.77;;;19.30;99.90;;;;;;5053399;28;20519;-69
2022/08/15 06:47:21;;;;;;;2.40;1.37;;;19.40;99.90;;;;;;5053336;28;20424;-69
2022/08/15 06:49:52;;;;;;;2.80;1.57;;;19.40;99.90;;;;;;5053515;28;20412;-69
2022/08/15 06:52:19;;;;;;;2.80;1.20;;;19.60;99.90;;;;;;5052039;28;20475;-69
2022/08/15 06:54:45;;;;;;;3.10;1.63;;;19.70;99.90;;;;;;5053404;28;20452;-68
2022/08/15 06:57:27;;;;;;;2.83;1.53;;;19.70;99.90;;;;;;5053043;28;20979;-68
2022/08/15 07:00:17;;;;;;;3.60;1.77;;;19.80;99.90;;;;;;5053308;28;20708;-69
2022/08/15 07:02:55;;;;;;;3.27;1.53;;;19.90;99.90;;;;;;5052732;28;20424;-70
2022/08/15 07:05:48;;;;;;;3.97;1.60;;;20.10;99.90;;;;;;5053210;28;20439;-68
2022/08/15 07:08:33;;;;;;;7.53;2.00;;;20.40;99.40;;;;;;5053502;28;20408;-69
2022/08/15 07:11:21;;;;;;;4.13;1.43;;;20.60;98.00;;;;;;5053042;28;20415;-69
2022/08/15 07:14:08;;;;;;;6.83;1.63;;;20.70;97.60;;;;;;5053232;28;20447;-68
2022/08/15 07:16:57;;;;;;;4.90;1.37;;;21.00;96.90;;;;;;5052931;28;20407;-68
2022/08/15 07:19:23;;;;;;;2.93;1.10;;;21.00;96.70;;;;;;5052651;28;20424;-69
2022/08/15 07:21:49;;;;;;;3.40;1.10;;;21.10;95.90;;;;;;5052545;28;20412;-69
2022/08/15 07:24:17;;;;;;;2.37;1.10;;;21.10;95.70;;;;;;5052924;28;20268;-69
2022/08/15 07:27:05;;;;;;;2.33;1.33;;;21.60;95.20;;;;;;5053058;28;20565;-69
2022/08/15 07:29:36;;;;;;;14.63;1.60;;;22.20;94.00;;;;;;5051582;28;20771;-69
2022/08/15 07:32:17;;;;;;;2.87;1.17;;;22.70;92.90;;;;;;5052356;28;20455;-69
2022/08/15 07:35:04;;;;;;;7.90;1.23;;;23.10;92.00;;;;;;5052846;28;20493;-69
2022/08/15 07:37:35;;;;;;;2.70;0.93;;;23.40;90.90;;;;;;5052725;28;20407;-69
2022/08/15 07:40:03;;;;;;;2.30;1.13;;;23.80;89.90;;;;;;5052805;28;20442;-69
2022/08/15 07:42:38;;;;;;;3.53;1.50;;;24.20;88.00;;;;;;5051827;28;20955;-68
2022/08/15 07:45:10;;;;;;;1.80;0.90;;;24.40;86.90;;;;;;5052599;28;20425;-68
2022/08/15 07:47:36;;;;;;;3.03;1.50;;;25.00;84.60;;;;;;5052578;28;20490;-68
2022/08/15 07:50:31;;;;;;;2.70;1.07;;;25.50;82.60;;;;;;5052641;28;20504;-68
2022/08/15 07:53:08;;;;;;;2.40;0.90;;;26.30;78.90;;;;;;5050796;28;20228;-68
2022/08/15 07:55:33;;;;;;;2.03;0.90;;;26.40;77.50;;;;;;5052254;28;20591;-68
2022/08/15 07:58:04;;;;;;;1.83;0.93;;;26.50;76.60;;;;;;5052229;28;20205;-68
2022/08/15 08:00:34;;;;;;;3.90;0.97;;;26.90;76.00;;;;;;5052325;28;20169;-68
2022/08/15 08:03:29;;;;;;;2.37;1.10;;;27.00;74.40;;;;;;5051767;28;20161;-68
2022/08/15 08:06:27;;;;;;;2.25;0.75;;;27.00;74.20;;;;;;5052112;28;20211;-68
2022/08/15 08:09:11;;;;;;;3.00;0.95;;;26.80;73.90;;;;;;5052153;28;20555;-68
2022/08/15 08:11:56;;;;;;;1.77;0.90;;;27.20;70.80;;;;;;5051744;28;20212;-68
2022/08/15 08:14:47;;;;;;;2.03;0.90;;;27.20;70.40;;;;;;5051881;28;20270;-68
2022/08/15 08:17:15;;;;;;;4.50;1.30;;;28.00;68.40;;;;;;5051456;28;20245;-68
2022/08/15 08:19:53;;;;;;;2.45;1.00;;;28.20;68.60;;;;;;5051932;28;20606;-68
2022/08/15 08:22:28;;;;;;;2.33;0.82;;;28.70;66.50;;;;;;5051436;28;20169;-68
2022/08/15 08:24:54;;;;;;;2.53;1.08;;;28.30;67.90;;;;;;5052091;28;20191;-69
2022/08/15 08:27:22;;;;;;;2.05;1.10;;;28.60;65.80;;;;;;5052043;28;20170;-68
2022/08/15 08:30:00;;;;;;;3.15;0.90;;;28.30;66.70;;;;;;5052007;28;20187;-68
2022/08/15 08:32:31;;;;;;;3.80;1.05;;;28.30;66.10;;;;;;5050991;28;20197;-69
2022/08/15 08:35:05;;;;;;;1.70;0.80;;;28.40;65.80;;;;;;5051196;28;20193;-69
2022/08/15 08:37:31;;;;;;;1.70;0.85;;;28.60;64.10;;;;;;5051127;28;20227;-69
2022/08/15 08:43:05;;;;;;;2.13;1.02;;;29.00;61.20;;;;;;5050758;28;20157;-68
2022/08/15 08:45:44;;;;;;;2.15;1.00;;;29.50;60.60;;;;;;5050986;28;20158;-69
2022/08/15 08:48:21;;;;;;;2.65;0.98;;;29.40;60.50;;;;;;5051601;28;20501;-69
2022/08/15 08:50:56;;;;;;;2.67;1.08;;;29.60;60.70;;;;;;5050771;28;20692;-69
2022/08/15 08:53:35;;;;;;;1.88;0.95;;;29.30;61.00;;;;;;5051706;28;20192;-69
2022/08/15 08:56:21;;;;;;;1.98;1.08;;;29.40;60.20;;;;;;5051819;28;20189;-69
2022/08/15 08:58:51;;;;;;;2.40;0.90;;;28.90;59.70;;;;;;5052026;28;20610;-68
2022/08/15 09:01:23;;;;;;;2.05;0.98;;;28.10;61.90;;;;;;5051519;28;20227;-69
2022/08/15 09:03:53;;;;;;;2.42;1.00;;;28.10;62.20;;;;;;5051744;28;20259;-69
2022/08/15 09:06:23;;;;;;;2.08;1.02;;;28.00;63.70;;;;;;5051875;28;20169;-69
2022/08/15 09:08:57;;;;;;;5.40;1.30;;;28.10;61.80;;;;;;5051801;28;20178;-69
2022/08/15 09:11:47;;;;;;;2.00;0.90;;;28.40;61.30;;;;;;5051221;28;20165;-68
2022/08/15 09:14:20;;;;;;;2.20;1.00;;;28.60;60.00;;;;;;5051724;28;20197;-69
2022/08/15 09:16:49;;;;;;;2.58;1.25;;;28.50;61.30;;;;;;5051543;28;20166;-68
2022/08/15 09:19:35;;;;;;;2.28;1.20;;;28.50;60.60;;;;;;5051479;28;20193;-69
2022/08/15 09:22:01;;;;;;;1.80;0.90;;;28.90;59.90;;;;;;5051151;28;20165;-69
2022/08/15 09:24:27;;;;;;;3.83;1.25;;;29.10;58.80;;;;;;5051512;28;20225;-68
2022/08/15 09:26:59;;;;;;;1.70;0.70;;;28.80;59.00;;;;;;5051519;28;20574;-68
2022/08/15 09:29:31;;;;;;;2.05;0.90;;;28.30;59.70;;;;;;5051924;28;20177;-68
2022/08/15 09:32:15;;;;;;;1.90;1.00;;;28.30;60.30;;;;;;5054317;28;20260;-69
2022/08/15 09:34:58;;;;;;;2.42;1.13;;;28.50;59.70;;;;;;5054866;28;20215;-69
2022/08/15 09:37:43;;;;;;;2.13;1.10;;;28.70;59.80;;;;;;5053628;28;20165;-69
2022/08/15 09:40:12;;;;;;;2.22;1.20;;;28.80;59.00;;;;;;5054746;28;20180;-69
2022/08/15 09:42:56;;;;;;;2.22;1.17;;;28.70;59.70;;;;;;5054212;28;20744;-69
2022/08/15 09:46:03;;;;;;;3.08;1.38;;;28.70;60.20;;;;;;5054563;28;20214;-69
2022/08/15 09:49:06;;;;;;;2.55;1.30;;;28.80;59.10;;;;;;5054667;28;20206;-68
2022/08/15 09:51:57;;;;;;;1.70;0.88;;;28.60;60.00;;;;;;5053189;28;20180;-69
2022/08/15 09:54:25;;;;;;;2.13;0.95;;;28.40;60.60;;;;;;5054430;28;20207;-69
2022/08/15 09:57:29;;;;;;;2.72;1.35;;;28.50;59.80;;;;;;5054393;28;20169;-69
2022/08/15 10:00:15;;;;;;;2.25;1.20;;;28.70;59.20;;;;;;5054218;28;20246;-69
2022/08/15 10:02:43;;;;;;;2.45;1.20;;;28.90;58.50;;;;;;5053969;28;20250;-69
2022/08/15 10:05:14;;;;;;;5.30;1.55;;;28.50;59.80;;;;;;5054280;28;20177;-69
2022/08/15 10:07:46;;;;;;;1.85;0.90;;;28.60;58.20;;;;;;5054297;28;20311;-69
2022/08/15 10:10:20;;;;;;;2.65;0.93;;;28.20;58.50;;;;;;5054268;28;20158;-69
2022/08/15 10:13:33;;;;;;;1.85;0.90;;;27.80;59.70;;;;;;5053751;28;20162;-68
2022/08/15 10:15:59;;;;;;;2.47;1.10;;;27.30;60.80;;;;;;5053017;28;20217;-69
2022/08/15 10:18:27;;;;;;;2.00;1.20;;;26.90;60.90;;;;;;5054144;28;20175;-69
2022/08/15 10:20:53;;;;;;;3.70;0.93;;;27.10;60.50;;;;;;5053952;28;20227;-69
2022/08/15 10:23:31;;;;;;;2.20;1.10;;;27.00;60.80;;;;;;5053889;28;20185;-69
2022/08/15 10:26:31;;;;;;;5.57;2.10;;;27.10;60.00;;;;;;5054211;28;20191;-69
2022/08/15 10:29:26;;;;;;;3.07;0.97;;;27.00;60.00;;;;;;5054219;28;20393;-69
2022/08/15 10:31:55;;;;;;;1.90;1.00;;;27.10;60.00;;;;;;5053682;28;20411;-69
2022/08/15 10:34:41;;;;;;;2.07;1.20;;;27.10;60.20;;;;;;5053773;28;20549;-68
2022/08/15 10:37:18;;;;;;;5.63;1.70;;;27.20;61.30;;;;;;5054097;28;20399;-69
2022/08/15 10:40:17;;;;;;;2.97;1.13;;;27.40;59.20;;;;;;5053803;28;20392;-68
2022/08/15 10:42:48;;;;;;;2.50;1.20;;;27.10;59.20;;;;;;5053099;28;20388;-69
2022/08/15 10:45:50;;;;;;;3.70;1.33;;;27.00;59.40;;;;;;5053670;28;20408;-68
2022/08/15 10:48:28;;;;;;;2.80;1.33;;;27.10;59.50;;;;;;5053459;28;20438;-68
2022/08/15 10:51:19;;;;;;;4.23;1.20;;;27.20;59.50;;;;;;5052293;28;20879;-69
2022/08/15 10:54:01;;;;;;;3.83;1.27;;;27.30;60.00;;;;;;5053321;28;20460;-69
2022/08/15 10:56:33;;;;;;;2.50;1.50;;;27.40;60.20;;;;;;5053440;28;20434;-69
2022/08/15 10:59:18;;;;;;;6.23;1.93;;;27.60;59.00;;;;;;5053310;28;20418;-69
2022/08/15 11:01:44;;;;;;;12.73;1.47;;;27.60;58.90;;;;;;5052957;28;20407;-69
2022/08/15 11:04:35;;;;;;;2.50;1.17;;;27.80;59.90;;;;;;5053166;28;20408;-69
2022/08/15 11:07:15;;;;;;;2.07;1.03;;;28.20;58.90;;;;;;5053026;28;20256;-68
2022/08/15 11:09:41;;;;;;;2.30;1.20;;;28.40;59.40;;;;;;5053028;28;20503;-69
2022/08/15 11:12:08;;;;;;;2.00;1.03;;;28.50;58.70;;;;;;5052650;28;20565;-70
2022/08/15 11:14:42;;;;;;;2.33;1.23;;;28.70;58.40;;;;;;5052986;28;20599;-69
2022/08/15 11:17:22;;;;;;;2.27;1.43;;;28.60;57.70;;;;;;5053054;28;20237;-69
2022/08/15 11:19:50;;;;;;;2.43;1.30;;;28.50;58.50;;;;;;5052978;28;20196;-69
2022/08/15 11:22:29;;;;;;;2.40;1.17;;;28.40;58.50;;;;;;5052376;28;20177;-69
2022/08/15 11:25:00;;;;;;;4.53;1.47;;;28.50;59.50;;;;;;5052695;28;20637;-69
2022/08/15 11:27:27;;;;;;;2.03;1.20;;;28.30;59.60;;;;;;5053035;28;20168;-69
2022/08/15 11:29:58;;;;;;;3.00;1.27;;;28.10;59.50;;;;;;5052576;28;20177;-69
2022/08/15 11:32:26;;;;;;;2.40;1.20;;;27.80;59.70;;;;;;5052466;28;20188;-69
2022/08/15 11:34:52;;;;;;;5.20;1.63;;;27.70;59.70;;;;;;5052514;28;20218;-69
2022/08/15 11:37:24;;;;;;;3.30;1.80;;;27.90;58.90;;;;;;5052706;28;20177;-69
2022/08/15 11:39:59;;;;;;;3.00;1.30;;;28.10;59.10;;;;;;5052746;28;20158;-69
2022/08/15 11:42:33;;;;;;;2.30;1.30;;;28.40;59.40;;;;;;5052159;28;20177;-69
2022/08/15 11:45:06;;;;;;;5.23;1.10;;;28.70;57.80;;;;;;5052469;28;20173;-69
2022/08/15 11:47:34;;;;;;;5.20;1.67;;;28.90;57.50;;;;;;5052440;28;20207;-69
2022/08/15 11:50:04;;;;;;;4.43;1.80;;;29.00;57.10;;;;;;5052426;28;20195;-69
2022/08/15 11:52:46;;;;;;;3.70;1.40;;;29.00;56.40;;;;;;5050315;28;20674;-69
2022/08/15 11:55:25;;;;;;;3.80;1.23;;;28.60;56.90;;;;;;5052365;28;20197;-69
2022/08/15 11:57:56;;;;;;;4.17;1.70;;;28.50;57.10;;;;;;5052604;28;20192;-69
2022/08/15 12:00:25;;;;;;;3.23;1.50;;;28.30;57.40;;;;;;5052359;28;20226;-69
2022/08/15 12:02:52;;;;;;;2.97;1.87;;;28.40;57.80;;;;;;5051601;28;20177;-69
2022/08/15 12:05:36;;;;;;;3.03;1.70;;;28.40;56.80;;;;;;5052217;28;20174;-69
2022/08/15 12:08:04;;;;;;;5.47;1.93;;;28.30;56.90;;;;;;5052214;28;20558;-68
2022/08/15 12:10:32;;;;;;;3.50;1.80;;;28.10;57.10;;;;;;5052076;28;20177;-69
2022/08/15 12:12:58;;;;;;;2.33;1.40;;;27.70;57.80;;;;;;5051849;28;20199;-69
2022/08/15 12:15:41;;;;;;;3.57;1.90;;;27.70;58.30;;;;;;5051845;28;20228;-69
2022/08/15 12:18:20;;;;;;;3.10;1.40;;;27.50;58.30;;;;;;5052089;28;20153;-68
2022/08/15 12:20:54;;;;;;;3.70;1.37;;;27.20;59.40;;;;;;5051940;28;20168;-69
2022/08/15 12:23:35;;;;;;;3.10;1.47;;;27.10;60.20;;;;;;5051764;28;20208;-68
2022/08/15 12:26:07;;;;;;;18.97;1.30;;;27.20;59.30;;;;;;5051889;28;20404;-69
2022/08/15 12:28:34;;;;;;;3.80;1.57;;;27.50;58.90;;;;;;5052032;28;20195;-68
2022/08/15 12:31:09;;;;;;;3.50;1.40;;;27.20;59.70;;;;;;5051569;28;20260;-69
2022/08/15 12:33:34;;;;;;;2.73;1.60;;;27.30;58.80;;;;;;5051985;28;20633;-68
2022/08/15 12:36:02;;;;;;;4.03;1.97;;;27.20;59.40;;;;;;5051804;28;20463;-69
2022/08/15 12:38:29;;;;;;;3.83;1.67;;;27.10;59.00;;;;;;5051867;28;20169;-69
2022/08/15 12:40:55;;;;;;;7.23;1.63;;;27.20;57.10;;;;;;5051550;28;20423;-69
2022/08/15 12:43:20;;;;;;;2.20;1.43;;;27.10;58.50;;;;;;5051602;28;20440;-68
2022/08/15 12:45:46;;;;;;;3.27;1.57;;;27.10;58.40;;;;;;5051702;28;20177;-68
2022/08/15 12:48:25;;;;;;;11.23;2.50;;;27.20;58.50;;;;;;5051746;28;20219;-69
2022/08/15 12:50:50;;;;;;;5.20;2.50;;;27.40;58.10;;;;;;5050637;28;20294;-69
2022/08/15 12:53:16;;;;;;;12.13;1.50;;;27.90;57.30;;;;;;5051390;28;20192;-69
2022/08/15 12:55:44;;;;;;;3.60;1.70;;;28.20;56.00;;;;;;5051379;28;20580;-70
2022/08/15 12:58:11;;;;;;;2.70;1.40;;;28.00;56.70;;;;;;5051761;28;20169;-69
2022/08/15 13:00:38;;;;;;;4.27;2.20;;;27.90;56.90;;;;;;5051493;28;20252;-69
2022/08/15 13:03:19;;;;;;;3.50;1.77;;;27.80;56.20;;;;;;5050972;28;20196;-70
2022/08/15 13:05:51;;;;;;;3.63;1.70;;;27.70;57.00;;;;;;5055284;28;20189;-70
2022/08/15 13:08:17;;;;;;;6.77;1.80;;;27.60;57.50;;;;;;5055404;28;20188;-69
2022/08/15 13:10:43;;;;;;;3.47;1.90;;;27.40;58.60;;;;;;5055298;28;20641;-69
2022/08/15 13:13:11;;;;;;;3.70;1.83;;;27.20;59.40;;;;;;5054845;28;20189;-69
2022/08/15 13:15:37;;;;;;;2.73;1.27;;;27.30;58.70;;;;;;5055212;28;20669;-69
2022/08/15 13:18:04;;;;;;;3.20;1.77;;;27.20;58.40;;;;;;5055394;28;20408;-69
2022/08/15 13:25:59;;;;;;;3.80;1.83;;;27.40;58.10;;;;;;5055376;28;20208;-69